createdAt,value
2016-03-03T00:00:45.410Z,987.39
2016-03-03T00:01:45.381Z,987.43
2016-03-03T00:02:45.352Z,987.44
2016-03-03T00:03:45.339Z,987.44
2016-03-03T00:04:45.311Z,987.38
2016-03-03T00:05:45.282Z,987.34
2016-03-03T00:06:45.254Z,987.43
2016-03-03T00:07:45.241Z,987.36
2016-03-03T00:08:45.212Z,987.34
2016-03-03T00:09:45.184Z,987.28
2016-03-03T00:10:45.155Z,987.32
2016-03-03T00:11:45.142Z,987.37
2016-03-03T00:12:45.113Z,987.34
2016-03-03T00:13:45.101Z,987.33
2016-03-03T00:14:45.057Z,987.34
2016-03-03T00:15:45.028Z,987.3
2016-03-03T00:16:45.015Z,987.31
2016-03-03T00:17:44.987Z,987.33
2016-03-03T00:18:44.958Z,987.26
2016-03-03T00:19:44.929Z,987.31
2016-03-03T00:20:44.917Z,987.45
2016-03-03T00:21:44.887Z,987.29
2016-03-03T00:22:44.859Z,987.29
2016-03-03T00:23:44.831Z,987.24
2016-03-03T00:24:44.817Z,987.28
2016-03-03T00:25:44.790Z,987.22
2016-03-03T00:26:44.761Z,987.19
2016-03-03T00:27:44.748Z,987.14
2016-03-03T00:28:44.719Z,987.24
2016-03-03T00:29:44.691Z,987.19
2016-03-03T00:30:44.662Z,987.23
2016-03-03T00:31:44.649Z,987.15
2016-03-03T00:32:44.621Z,987.19
2016-03-03T00:33:44.591Z,987.2
2016-03-03T00:34:44.564Z,987.22
2016-03-03T00:35:44.535Z,987.23
2016-03-03T00:36:44.522Z,987.25
2016-03-03T00:37:44.493Z,987.29
2016-03-03T00:38:44.465Z,987.16
2016-03-03T00:39:44.436Z,987.19
2016-03-03T00:40:44.423Z,987.14
2016-03-03T00:41:44.660Z,987.2
2016-03-03T00:42:44.366Z,987.18
2016-03-03T00:43:44.337Z,987.2
2016-03-03T00:44:44.310Z,987.15
2016-03-03T00:45:44.296Z,987.18
2016-03-03T00:46:44.267Z,987.24
2016-03-03T00:47:44.240Z,987.2
2016-03-03T00:48:44.210Z,987.25
2016-03-03T00:49:44.197Z,987.25
2016-03-03T00:50:44.169Z,987.25
2016-03-03T00:51:44.141Z,987.25
2016-03-03T00:52:44.112Z,987.29
2016-03-03T00:53:44.098Z,987.24
2016-03-03T00:54:44.070Z,987.31
2016-03-03T00:55:44.042Z,987.31
2016-03-03T00:56:44.014Z,987.34
2016-03-03T00:57:44.001Z,987.32
2016-03-03T00:58:43.972Z,987.36
2016-03-03T00:59:43.944Z,987.32
2016-03-03T01:00:43.930Z,987.29
2016-03-03T01:01:43.902Z,987.3
2016-03-03T01:02:43.873Z,987.29
2016-03-03T01:03:43.844Z,987.28
2016-03-03T01:04:43.817Z,987.3
2016-03-03T01:05:43.835Z,987.33
2016-03-03T01:06:43.775Z,987.28
2016-03-03T01:07:43.761Z,987.32
2016-03-03T01:08:43.717Z,987.31
2016-03-03T01:09:43.705Z,987.31
2016-03-03T01:10:43.676Z,987.29
2016-03-03T01:11:43.647Z,987.27
2016-03-03T01:12:43.619Z,987.26
2016-03-03T01:13:43.607Z,987.39
2016-03-03T01:14:43.577Z,987.35
2016-03-03T01:15:43.549Z,987.36
2016-03-03T01:16:43.536Z,987.29
2016-03-03T01:17:43.492Z,987.41
2016-03-03T01:18:43.479Z,987.37
2016-03-03T01:19:43.451Z,987.34
2016-03-03T01:20:43.421Z,987.38
2016-03-03T01:21:43.393Z,987.36
2016-03-03T01:22:43.381Z,987.34
2016-03-03T01:23:43.383Z,987.35
2016-03-03T01:24:43.323Z,987.34
2016-03-03T01:25:43.325Z,987.37
2016-03-03T01:26:43.281Z,987.36
2016-03-03T01:27:43.253Z,987.3
2016-03-03T01:28:43.225Z,987.24
2016-03-03T01:29:43.212Z,987.35
2016-03-03T01:30:43.183Z,987.31
2016-03-03T01:31:43.155Z,987.25
2016-03-03T01:32:43.125Z,987.31
2016-03-03T01:33:43.097Z,987.3
2016-03-03T01:34:43.068Z,987.32
2016-03-03T01:35:43.055Z,987.34
2016-03-03T01:36:43.027Z,987.35
2016-03-03T01:37:42.999Z,987.37
2016-03-03T01:38:42.969Z,987.37
2016-03-03T01:39:42.957Z,987.39
2016-03-03T01:40:42.929Z,987.32
2016-03-03T01:41:42.899Z,987.3
2016-03-03T01:42:42.871Z,987.31
2016-03-03T01:43:42.858Z,987.33
2016-03-03T01:44:42.846Z,987.32
2016-03-03T01:45:42.817Z,987.34
2016-03-03T01:46:42.774Z,987.3
2016-03-03T01:47:42.760Z,987.33
2016-03-03T01:48:42.732Z,987.32
2016-03-03T01:49:42.703Z,987.33
2016-03-03T01:50:42.674Z,987.31
2016-03-03T01:51:42.646Z,987.36
2016-03-03T01:52:42.633Z,987.36
2016-03-03T01:53:42.601Z,987.38
2016-03-03T01:54:42.573Z,987.44
2016-03-03T01:55:42.560Z,987.45
2016-03-03T01:56:42.531Z,987.47
2016-03-03T01:57:42.502Z,987.48
2016-03-03T01:58:42.474Z,987.41
2016-03-03T01:59:42.461Z,987.5
2016-03-03T02:00:42.433Z,987.48
2016-03-03T02:01:42.405Z,987.47
2016-03-03T02:02:42.375Z,987.55
2016-03-03T02:03:42.346Z,987.52
2016-03-03T02:04:42.333Z,987.74
2016-03-03T02:05:42.336Z,987.64
2016-03-03T02:06:42.277Z,987.64
2016-03-03T02:07:42.264Z,987.65
2016-03-03T02:08:42.236Z,987.71
2016-03-03T02:09:42.207Z,987.68
2016-03-03T02:10:42.179Z,987.78
2016-03-03T02:11:42.166Z,987.7
2016-03-03T02:12:42.138Z,987.67
2016-03-03T02:13:42.108Z,987.66
2016-03-03T02:14:42.079Z,987.67
2016-03-03T02:15:42.051Z,987.62
2016-03-03T02:16:42.038Z,987.63
2016-03-03T02:17:42.010Z,987.66
2016-03-03T02:18:41.982Z,987.55
2016-03-03T02:19:41.953Z,987.57
2016-03-03T02:20:41.940Z,987.57
2016-03-03T02:21:41.911Z,987.66
2016-03-03T02:22:41.882Z,987.6
2016-03-03T02:23:41.853Z,987.61
2016-03-03T02:24:41.826Z,987.65
2016-03-03T02:25:41.812Z,987.71
2016-03-03T02:26:41.784Z,987.68
2016-03-03T02:27:41.755Z,987.68
2016-03-03T02:28:41.727Z,987.7
2016-03-03T02:29:41.713Z,987.75
2016-03-03T02:30:41.685Z,987.76
2016-03-03T02:31:41.657Z,987.78
2016-03-03T02:32:41.644Z,987.75
2016-03-03T02:33:41.616Z,987.79
2016-03-03T02:34:41.727Z,987.79
2016-03-03T02:35:41.558Z,987.8
2016-03-03T02:36:41.529Z,987.89
2016-03-03T02:37:41.516Z,987.83
2016-03-03T02:38:41.488Z,987.81
2016-03-03T02:39:41.460Z,987.76
2016-03-03T02:40:41.430Z,987.85
2016-03-03T02:41:41.402Z,987.84
2016-03-03T02:42:41.389Z,987.84
2016-03-03T02:43:41.360Z,987.78
2016-03-03T02:44:41.332Z,987.79
2016-03-03T02:45:41.319Z,987.85
2016-03-03T02:46:41.291Z,987.78
2016-03-03T02:47:41.262Z,987.81
2016-03-03T02:48:41.249Z,987.75
2016-03-03T02:49:41.214Z,987.79
2016-03-03T02:50:41.170Z,987.77
2016-03-03T02:51:41.126Z,987.81
2016-03-03T02:52:41.081Z,987.83
2016-03-03T02:53:41.037Z,987.83
2016-03-03T02:54:41.014Z,987.82
2016-03-03T02:55:40.980Z,987.83
2016-03-03T02:56:40.946Z,987.93
2016-03-03T02:57:40.912Z,987.82
2016-03-03T02:58:40.878Z,987.88
2016-03-03T02:59:40.862Z,987.87
2016-03-03T03:00:40.847Z,987.95
2016-03-03T03:01:40.800Z,987.8
2016-03-03T03:02:40.770Z,987.86
2016-03-03T03:03:40.755Z,987.88
2016-03-03T03:04:40.725Z,987.92
2016-03-03T03:05:40.712Z,987.96
2016-03-03T03:06:40.667Z,987.95
2016-03-03T03:07:40.653Z,987.95
2016-03-03T03:08:40.624Z,987.97
2016-03-03T03:09:40.596Z,987.92
2016-03-03T03:10:40.566Z,987.96
2016-03-03T03:11:40.537Z,988.02
2016-03-03T03:12:40.524Z,987.99
2016-03-03T03:13:40.495Z,988.04
2016-03-03T03:14:40.483Z,988.09
2016-03-03T03:15:40.438Z,988.06
2016-03-03T03:16:40.424Z,988.1
2016-03-03T03:17:40.396Z,988.05
2016-03-03T03:18:40.368Z,988.01
2016-03-03T03:19:40.338Z,988.1
2016-03-03T03:20:40.310Z,988.08
2016-03-03T03:21:40.297Z,988.14
2016-03-03T03:22:40.269Z,988.13
2016-03-03T03:23:40.257Z,988.19
2016-03-03T03:24:40.213Z,988.17
2016-03-03T03:25:40.199Z,988.25
2016-03-03T03:26:40.171Z,988.18
2016-03-03T03:27:40.140Z,988.16
2016-03-03T03:28:40.111Z,988.16
2016-03-03T03:29:40.099Z,988.17
2016-03-03T03:30:40.069Z,988.21
2016-03-03T03:31:40.040Z,988.21
2016-03-03T03:32:40.028Z,988.26
2016-03-03T03:33:39.999Z,988.23
2016-03-03T03:34:39.971Z,988.28
2016-03-03T03:35:39.942Z,988.29
2016-03-03T03:36:39.915Z,988.3
2016-03-03T03:37:39.901Z,988.3
2016-03-03T03:38:39.873Z,988.34
2016-03-03T03:39:39.843Z,988.4
2016-03-03T03:40:39.815Z,988.36
2016-03-03T03:41:39.802Z,988.41
2016-03-03T03:42:39.773Z,988.41
2016-03-03T03:43:39.761Z,988.44
2016-03-03T03:44:39.717Z,988.43
2016-03-03T03:45:39.704Z,988.41
2016-03-03T03:46:39.675Z,988.43
2016-03-03T03:47:39.647Z,988.45
2016-03-03T03:48:39.618Z,988.46
2016-03-03T03:49:39.590Z,988.48
2016-03-03T03:50:39.577Z,988.52
2016-03-03T03:51:39.548Z,988.45
2016-03-03T03:52:39.519Z,988.48
2016-03-03T03:53:39.491Z,988.46
2016-03-03T03:54:39.463Z,988.49
2016-03-03T03:55:39.449Z,988.48
2016-03-03T03:56:39.421Z,988.51
2016-03-03T03:57:39.391Z,988.51
2016-03-03T03:58:39.363Z,988.5
2016-03-03T03:59:39.351Z,988.51
2016-03-03T04:00:39.322Z,988.47
2016-03-03T04:01:39.310Z,988.5
2016-03-03T04:02:39.265Z,988.52
2016-03-03T04:03:39.283Z,988.53
2016-03-03T04:04:39.224Z,988.6
2016-03-03T04:05:39.195Z,988.59
2016-03-03T04:06:39.166Z,988.56
2016-03-03T04:07:39.153Z,988.59
2016-03-03T04:08:39.125Z,988.59
2016-03-03T04:09:39.096Z,988.57
2016-03-03T04:10:39.067Z,988.58
2016-03-03T04:11:39.040Z,988.61
2016-03-03T04:12:39.042Z,988.61
2016-03-03T04:13:38.998Z,988.65
2016-03-03T04:14:38.970Z,988.66
2016-03-03T04:15:38.941Z,988.7
2016-03-03T04:16:38.928Z,988.66
2016-03-03T04:17:38.900Z,988.7
2016-03-03T04:18:38.871Z,988.69
2016-03-03T04:19:38.843Z,988.72
2016-03-03T04:20:38.815Z,988.75
2016-03-03T04:21:38.806Z,988.81
2016-03-03T04:22:38.778Z,988.87
2016-03-03T04:23:38.750Z,988.83
2016-03-03T04:24:38.720Z,988.9
2016-03-03T04:25:38.692Z,988.93
2016-03-03T04:26:38.678Z,988.92
2016-03-03T04:27:38.666Z,989
2016-03-03T04:28:38.622Z,988.9
2016-03-03T04:29:38.593Z,988.96
2016-03-03T04:30:38.565Z,988.95
2016-03-03T04:31:38.552Z,988.95
2016-03-03T04:32:38.524Z,988.94
2016-03-03T04:33:38.495Z,989.03
2016-03-03T04:34:38.466Z,988.93
2016-03-03T04:35:38.453Z,988.97
2016-03-03T04:36:38.424Z,988.97
2016-03-03T04:37:38.396Z,989.04
2016-03-03T04:38:38.383Z,989.03
2016-03-03T04:39:38.354Z,989.02
2016-03-03T04:40:38.326Z,989.01
2016-03-03T04:41:38.329Z,989.06
2016-03-03T04:42:38.269Z,989.03
2016-03-03T04:43:38.257Z,989.03
2016-03-03T04:44:38.227Z,989.02
2016-03-03T04:45:38.199Z,989.03
2016-03-03T04:46:38.170Z,989.01
2016-03-03T04:47:38.157Z,989.05
2016-03-03T04:48:38.113Z,989.01
2016-03-03T04:49:38.101Z,989.03
2016-03-03T04:50:38.072Z,989.08
2016-03-03T04:51:38.043Z,989.05
2016-03-03T04:52:38.030Z,989.08
2016-03-03T04:53:38.001Z,989.07
2016-03-03T04:54:37.973Z,989.04
2016-03-03T04:55:37.944Z,989.07
2016-03-03T04:56:37.931Z,989.05
2016-03-03T04:57:37.903Z,989.09
2016-03-03T04:58:37.875Z,989.08
2016-03-03T04:59:37.847Z,989.08
2016-03-03T05:00:37.817Z,989.06
2016-03-03T05:01:37.805Z,989.05
2016-03-03T05:02:37.792Z,989.07
2016-03-03T05:03:37.763Z,989.11
2016-03-03T05:04:37.719Z,989.09
2016-03-03T05:05:37.705Z,989.06
2016-03-03T05:06:37.677Z,989.11
2016-03-03T05:07:37.649Z,989.13
2016-03-03T05:08:37.621Z,989.16
2016-03-03T05:09:37.591Z,989.14
2016-03-03T05:10:37.579Z,989.18
2016-03-03T05:11:37.549Z,989.17
2016-03-03T05:12:37.521Z,989.12
2016-03-03T05:13:37.509Z,989.13
2016-03-03T05:14:37.464Z,989.17
2016-03-03T05:15:37.452Z,989.13
2016-03-03T05:16:37.423Z,989.14
2016-03-03T05:17:37.394Z,989.16
2016-03-03T05:18:37.365Z,989.12
2016-03-03T05:19:37.353Z,989.18
2016-03-03T05:20:37.324Z,989.19
2016-03-03T05:21:37.296Z,989.17
2016-03-03T05:22:37.267Z,989.21
2016-03-03T05:23:37.254Z,989.23
2016-03-03T05:24:37.429Z,989.22
2016-03-03T05:25:37.307Z,989.27
2016-03-03T05:26:37.169Z,989.27
2016-03-03T05:27:37.156Z,989.29
2016-03-03T05:28:37.128Z,989.23
2016-03-03T05:29:37.098Z,989.28
2016-03-03T05:30:37.070Z,989.3
2016-03-03T05:31:37.041Z,989.32
2016-03-03T05:32:37.028Z,989.28
2016-03-03T05:33:37.000Z,989.28
2016-03-03T05:34:36.971Z,989.29
2016-03-03T05:35:36.943Z,989.29
2016-03-03T05:36:36.914Z,989.31
2016-03-03T05:37:36.901Z,989.32
2016-03-03T05:38:36.872Z,989.32
2016-03-03T05:39:36.860Z,989.29
2016-03-03T05:40:36.816Z,989.34
2016-03-03T05:41:36.803Z,989.35
2016-03-03T05:42:36.774Z,989.36
2016-03-03T05:43:36.746Z,989.36
2016-03-03T05:44:36.717Z,989.37
2016-03-03T05:45:36.704Z,989.37
2016-03-03T05:46:36.676Z,989.38
2016-03-03T05:47:36.646Z,989.4
2016-03-03T05:48:36.618Z,989.46
2016-03-03T05:49:36.590Z,989.38
2016-03-03T05:50:36.577Z,989.38
2016-03-03T05:51:36.549Z,989.37
2016-03-03T05:52:36.520Z,989.36
2016-03-03T05:53:36.492Z,989.42
2016-03-03T05:54:36.479Z,989.37
2016-03-03T05:55:36.450Z,989.4
2016-03-03T05:56:36.421Z,989.39
2016-03-03T05:57:36.392Z,989.35
2016-03-03T05:58:36.364Z,989.3
2016-03-03T05:59:36.351Z,989.34
2016-03-03T06:00:36.323Z,989.28
2016-03-03T06:01:36.294Z,989.31
2016-03-03T06:02:36.266Z,989.32
2016-03-03T06:03:36.252Z,989.31
2016-03-03T06:04:36.239Z,989.3
2016-03-03T06:05:36.195Z,989.3
2016-03-03T06:06:36.197Z,989.31
2016-03-03T06:07:36.155Z,989.26
2016-03-03T06:08:36.125Z,989.33
2016-03-03T06:09:36.096Z,989.31
2016-03-03T06:10:36.068Z,989.32
2016-03-03T06:11:36.055Z,989.31
2016-03-03T06:12:36.026Z,989.3
2016-03-03T06:13:35.998Z,989.33
2016-03-03T06:14:35.969Z,989.31
2016-03-03T06:15:35.941Z,989.34
2016-03-03T06:16:35.928Z,989.33
2016-03-03T06:17:35.900Z,989.31
2016-03-03T06:18:35.902Z,989.3
2016-03-03T06:19:35.843Z,989.3
2016-03-03T06:20:35.830Z,989.31
2016-03-03T06:21:35.802Z,989.31
2016-03-03T06:22:35.773Z,989.31
2016-03-03T06:23:35.744Z,989.33
2016-03-03T06:24:35.715Z,989.31
2016-03-03T06:25:35.703Z,989.36
2016-03-03T06:26:35.674Z,989.34
2016-03-03T06:27:35.645Z,989.3
2016-03-03T06:28:35.648Z,989.32
2016-03-03T06:29:35.604Z,989.32
2016-03-03T06:30:35.575Z,989.31
2016-03-03T06:31:35.547Z,989.41
2016-03-03T06:32:35.518Z,989.37
2016-03-03T06:33:35.489Z,989.42
2016-03-03T06:34:35.477Z,989.45
2016-03-03T06:35:35.448Z,989.4
2016-03-03T06:36:35.419Z,989.45
2016-03-03T06:37:35.407Z,989.49
2016-03-03T06:38:35.378Z,989.5
2016-03-03T06:39:35.350Z,989.48
2016-03-03T06:40:35.322Z,989.51
2016-03-03T06:41:35.293Z,989.52
2016-03-03T06:42:35.280Z,989.57
2016-03-03T06:43:35.252Z,989.52
2016-03-03T06:44:35.222Z,989.57
2016-03-03T06:45:35.195Z,989.57
2016-03-03T06:46:35.181Z,989.58
2016-03-03T06:47:35.153Z,989.58
2016-03-03T06:48:35.125Z,989.6
2016-03-03T06:49:35.100Z,989.59
2016-03-03T06:50:35.070Z,989.62
2016-03-03T06:51:35.059Z,989.62
2016-03-03T06:52:35.029Z,989.64
2016-03-03T06:53:35.001Z,989.65
2016-03-03T06:54:34.973Z,989.66
2016-03-03T06:55:34.944Z,989.74
2016-03-03T06:56:34.915Z,989.73
2016-03-03T06:57:34.902Z,989.7
2016-03-03T06:58:34.874Z,989.71
2016-03-03T06:59:34.845Z,989.7
2016-03-03T07:00:34.863Z,989.74
2016-03-03T07:01:34.804Z,989.73
2016-03-03T07:02:34.775Z,989.73
2016-03-03T07:03:34.747Z,989.73
2016-03-03T07:04:34.719Z,989.74
2016-03-03T07:05:34.705Z,989.74
2016-03-03T07:06:34.677Z,989.75
2016-03-03T07:07:34.648Z,989.76
2016-03-03T07:08:34.620Z,989.79
2016-03-03T07:09:34.591Z,989.81
2016-03-03T07:10:34.577Z,989.83
2016-03-03T07:11:34.550Z,989.83
2016-03-03T07:12:34.521Z,989.88
2016-03-03T07:13:34.508Z,989.87
2016-03-03T07:14:34.480Z,989.85
2016-03-03T07:15:34.451Z,989.87
2016-03-03T07:16:34.422Z,989.85
2016-03-03T07:17:34.409Z,989.82
2016-03-03T07:18:34.365Z,989.86
2016-03-03T07:19:34.352Z,989.9
2016-03-03T07:20:34.323Z,989.87
2016-03-03T07:21:34.295Z,989.89
2016-03-03T07:22:34.267Z,989.9
2016-03-03T07:23:34.253Z,989.91
2016-03-03T07:24:34.226Z,989.88
2016-03-03T07:25:34.197Z,989.88
2016-03-03T07:26:34.167Z,989.89
2016-03-03T07:27:34.139Z,989.87
2016-03-03T07:28:34.126Z,989.87
2016-03-03T07:29:34.098Z,989.9
2016-03-03T07:30:34.069Z,989.93
2016-03-03T07:31:34.056Z,989.87
2016-03-03T07:32:34.028Z,989.92
2016-03-03T07:33:34.000Z,989.91
2016-03-03T07:34:33.972Z,989.94
2016-03-03T07:35:33.958Z,989.94
2016-03-03T07:36:33.929Z,989.93
2016-03-03T07:37:33.900Z,989.91
2016-03-03T07:38:33.888Z,989.92
2016-03-03T07:39:33.860Z,989.91
2016-03-03T07:40:33.830Z,989.94
2016-03-03T07:41:33.802Z,989.93
2016-03-03T07:42:33.774Z,989.95
2016-03-03T07:43:33.745Z,989.95
2016-03-03T07:44:33.733Z,989.97
2016-03-03T07:45:33.704Z,989.98
2016-03-03T07:46:33.674Z,989.97
2016-03-03T07:47:33.662Z,989.95
2016-03-03T07:48:33.649Z,989.99
2016-03-03T07:49:33.604Z,989.95
2016-03-03T07:50:33.592Z,990.01
2016-03-03T07:51:33.563Z,990
2016-03-03T07:52:33.534Z,989.99
2016-03-03T07:53:33.506Z,990.01
2016-03-03T07:54:33.493Z,990.01
2016-03-03T07:55:33.449Z,990.05
2016-03-03T07:56:33.436Z,990.05
2016-03-03T07:57:33.408Z,990.01
2016-03-03T07:58:33.395Z,990.03
2016-03-03T07:59:33.350Z,990.05
2016-03-03T08:00:33.337Z,990.03
2016-03-03T08:01:33.308Z,990.1
2016-03-03T08:02:33.280Z,990.03
2016-03-03T08:03:33.253Z,990.05
2016-03-03T08:04:33.223Z,990.01
2016-03-03T08:05:33.211Z,990.03
2016-03-03T08:06:33.182Z,990.04
2016-03-03T08:07:33.153Z,990.07
2016-03-03T08:08:33.141Z,990.03
2016-03-03T08:09:33.111Z,990.01
2016-03-03T08:10:33.083Z,990.07
2016-03-03T08:11:33.055Z,990.03
2016-03-03T08:12:33.026Z,990.05
2016-03-03T08:13:33.013Z,990.07
2016-03-03T08:14:32.985Z,990.06
2016-03-03T08:15:32.956Z,990.12
2016-03-03T08:16:32.927Z,990.09
2016-03-03T08:17:32.915Z,990.11
2016-03-03T08:18:32.885Z,990.16
2016-03-03T08:19:32.857Z,990.22
2016-03-03T08:20:32.845Z,990.21
2016-03-03T08:21:32.801Z,990.24
2016-03-03T08:22:32.787Z,990.25
2016-03-03T08:23:32.759Z,990.24
2016-03-03T08:24:32.746Z,990.23
2016-03-03T08:25:32.717Z,990.26
2016-03-03T08:26:32.689Z,990.26
2016-03-03T08:27:32.660Z,990.24
2016-03-03T08:28:32.631Z,990.32
2016-03-03T08:29:32.603Z,990.28
2016-03-03T08:30:32.590Z,990.29
2016-03-03T08:31:32.561Z,990.33
2016-03-03T08:32:32.534Z,990.35
2016-03-03T08:33:32.505Z,990.33
2016-03-03T08:34:32.508Z,990.35
2016-03-03T08:35:32.463Z,990.4
2016-03-03T08:36:32.434Z,990.32
2016-03-03T08:37:32.406Z,990.37
2016-03-03T08:38:32.393Z,990.34
2016-03-03T08:39:32.364Z,990.37
2016-03-03T08:40:32.336Z,990.35
2016-03-03T08:41:32.307Z,990.39
2016-03-03T08:42:32.279Z,990.39
2016-03-03T08:43:32.266Z,990.4
2016-03-03T08:44:32.237Z,990.4
2016-03-03T08:45:32.208Z,990.4
2016-03-03T08:46:32.180Z,990.39
2016-03-03T08:47:32.167Z,990.44
2016-03-03T08:48:32.138Z,990.45
2016-03-03T08:49:32.110Z,990.44
2016-03-03T08:50:32.081Z,990.46
2016-03-03T08:51:32.068Z,990.48
2016-03-03T08:52:32.040Z,990.52
2016-03-03T08:53:32.012Z,990.52
2016-03-03T08:54:31.982Z,990.54
2016-03-03T08:55:31.970Z,990.55
2016-03-03T08:56:31.942Z,990.55
2016-03-03T08:57:31.912Z,990.6
2016-03-03T08:58:31.915Z,990.61
2016-03-03T08:59:31.871Z,990.63
2016-03-03T09:00:31.842Z,990.65
2016-03-03T09:01:31.815Z,990.63
2016-03-03T09:02:31.801Z,990.68
2016-03-03T09:03:31.772Z,990.68
2016-03-03T09:04:31.744Z,990.68
2016-03-03T09:05:31.716Z,990.75
2016-03-03T09:06:31.686Z,990.71
2016-03-03T09:07:31.674Z,990.7
2016-03-03T09:08:31.645Z,990.7
2016-03-03T09:09:31.617Z,990.7
2016-03-03T09:10:31.605Z,990.72
2016-03-03T09:11:31.575Z,990.76
2016-03-03T09:12:31.546Z,990.77
2016-03-03T09:13:31.519Z,990.74
2016-03-03T09:14:31.505Z,990.73
2016-03-03T09:15:31.477Z,990.73
2016-03-03T09:16:31.448Z,990.79
2016-03-03T09:17:31.435Z,990.74
2016-03-03T09:18:31.391Z,990.73
2016-03-03T09:19:31.394Z,990.75
2016-03-03T09:20:31.349Z,990.78
2016-03-03T09:21:31.337Z,990.79
2016-03-03T09:22:31.308Z,990.77
2016-03-03T09:23:31.279Z,990.82
2016-03-03T09:24:31.282Z,990.83
2016-03-03T09:25:31.222Z,990.83
2016-03-03T09:26:31.209Z,990.84
2016-03-03T09:27:31.181Z,990.84
2016-03-03T09:28:31.153Z,990.85
2016-03-03T09:29:31.123Z,990.85
2016-03-03T09:30:31.111Z,990.87
2016-03-03T09:31:31.082Z,990.88
2016-03-03T09:32:31.053Z,990.89
2016-03-03T09:33:31.025Z,990.9
2016-03-03T09:34:31.011Z,990.87
2016-03-03T09:35:31.000Z,990.86
2016-03-03T09:36:30.970Z,990.89
2016-03-03T09:37:30.942Z,990.88
2016-03-03T09:38:30.914Z,990.87
2016-03-03T09:39:30.885Z,990.89
2016-03-03T09:40:30.872Z,990.93
2016-03-03T09:41:30.844Z,990.92
2016-03-03T09:42:30.815Z,990.91
2016-03-03T09:43:30.786Z,990.93
2016-03-03T09:44:30.789Z,990.88
2016-03-03T09:45:30.744Z,990.9
2016-03-03T09:46:30.748Z,990.92
2016-03-03T09:47:30.688Z,990.91
2016-03-03T09:48:30.675Z,990.96
2016-03-03T09:49:30.646Z,990.94
2016-03-03T09:50:30.633Z,990.93
2016-03-03T09:51:30.604Z,990.95
2016-03-03T09:52:30.576Z,990.97
2016-03-03T09:53:30.548Z,991
2016-03-03T09:54:30.519Z,990.98
2016-03-03T09:55:30.506Z,991.03
2016-03-03T09:56:30.478Z,991.01
2016-03-03T09:57:30.481Z,991.04
2016-03-03T09:58:30.437Z,991.06
2016-03-03T09:59:30.407Z,991.12
2016-03-03T10:00:30.379Z,991.14
2016-03-03T10:01:30.367Z,991.15
2016-03-03T10:02:30.337Z,991.22
2016-03-03T10:03:30.309Z,991.21
2016-03-03T10:04:30.281Z,991.24
2016-03-03T10:05:30.267Z,991.25
2016-03-03T10:06:30.239Z,991.24
2016-03-03T10:07:30.210Z,991.28
2016-03-03T10:08:30.181Z,991.24
2016-03-03T10:09:30.169Z,991.29
2016-03-03T10:10:30.140Z,991.28
2016-03-03T10:11:30.112Z,991.29
2016-03-03T10:12:30.099Z,991.25
2016-03-03T10:13:30.070Z,991.27
2016-03-03T10:14:30.041Z,991.28
2016-03-03T10:15:30.013Z,991.26
2016-03-03T10:16:29.999Z,991.31
2016-03-03T10:17:29.971Z,991.32
2016-03-03T10:18:29.943Z,991.33
2016-03-03T10:19:29.929Z,991.31
2016-03-03T10:20:29.901Z,991.35
2016-03-03T10:21:29.873Z,991.32
2016-03-03T10:22:29.844Z,991.35
2016-03-03T10:23:29.831Z,991.4
2016-03-03T10:24:29.803Z,991.4
2016-03-03T10:25:29.774Z,991.44
2016-03-03T10:26:29.761Z,991.44
2016-03-03T10:27:29.732Z,991.46
2016-03-03T10:28:29.704Z,991.5
2016-03-03T10:29:29.691Z,991.48
2016-03-03T10:30:29.662Z,991.51
2016-03-03T10:31:29.634Z,991.52
2016-03-03T10:32:29.620Z,991.53
2016-03-03T10:33:29.592Z,991.49
2016-03-03T10:34:29.580Z,991.52
2016-03-03T10:35:29.535Z,991.52
2016-03-03T10:36:29.522Z,991.51
2016-03-03T10:37:29.509Z,991.55
2016-03-03T10:38:29.466Z,991.55
2016-03-03T10:39:29.452Z,991.54
2016-03-03T10:40:29.424Z,991.52
2016-03-03T10:41:29.395Z,991.55
2016-03-03T10:42:29.382Z,991.51
2016-03-03T10:43:29.354Z,991.54
2016-03-03T10:44:29.325Z,991.58
2016-03-03T10:45:29.296Z,991.57
2016-03-03T10:46:29.283Z,991.58
2016-03-03T10:47:29.255Z,991.59
2016-03-03T10:48:29.242Z,991.58
2016-03-03T10:49:29.213Z,991.57
2016-03-03T10:50:29.216Z,991.61
2016-03-03T10:51:29.266Z,991.62
2016-03-03T10:52:29.143Z,991.64
2016-03-03T10:53:29.115Z,991.64
2016-03-03T10:54:29.087Z,991.66
2016-03-03T10:55:29.073Z,991.7
2016-03-03T10:56:29.045Z,991.69
2016-03-03T10:57:29.017Z,991.69
2016-03-03T10:58:29.003Z,991.76
2016-03-03T10:59:28.975Z,991.8
2016-03-03T11:00:28.946Z,991.85
2016-03-03T11:01:28.917Z,991.82
2016-03-03T11:02:28.905Z,991.85
2016-03-03T11:03:28.876Z,991.82
2016-03-03T11:04:28.863Z,991.84
2016-03-03T11:05:28.834Z,991.9
2016-03-03T11:06:28.806Z,991.92
2016-03-03T11:07:28.778Z,991.89
2016-03-03T11:08:28.780Z,991.9
2016-03-03T11:09:28.752Z,991.89
2016-03-03T11:10:28.723Z,991.91
2016-03-03T11:11:28.725Z,991.91
2016-03-03T11:12:28.666Z,991.94
2016-03-03T11:13:28.646Z,991.91
2016-03-03T11:14:28.616Z,991.94
2016-03-03T11:15:28.588Z,991.95
2016-03-03T11:16:28.572Z,991.92
2016-03-03T11:17:28.543Z,991.89
2016-03-03T11:18:28.515Z,991.88
2016-03-03T11:19:28.518Z,991.89
2016-03-03T11:20:28.474Z,991.95
2016-03-03T11:21:28.445Z,991.92
2016-03-03T11:22:28.433Z,991.89
2016-03-03T11:23:28.404Z,991.9
2016-03-03T11:24:28.390Z,991.89
2016-03-03T11:25:28.363Z,991.88
2016-03-03T11:26:28.334Z,991.89
2016-03-03T11:27:28.305Z,991.87
2016-03-03T11:28:28.293Z,991.91
2016-03-03T11:29:28.264Z,991.91
2016-03-03T11:30:28.251Z,991.89
2016-03-03T11:31:28.222Z,991.88
2016-03-03T11:32:28.194Z,991.89
2016-03-03T11:33:28.165Z,991.87
2016-03-03T11:34:28.136Z,991.9
2016-03-03T11:35:28.123Z,991.9
2016-03-03T11:36:28.095Z,991.91
2016-03-03T11:37:28.067Z,991.94
2016-03-03T11:38:28.053Z,991.91
2016-03-03T11:39:28.025Z,991.9
2016-03-03T11:40:28.012Z,991.93
2016-03-03T11:41:27.983Z,991.97
2016-03-03T11:42:27.971Z,991.94
2016-03-03T11:43:27.942Z,991.96
2016-03-03T11:44:27.913Z,992
2016-03-03T11:45:27.885Z,991.99
2016-03-03T11:46:27.903Z,991.99
2016-03-03T11:47:27.843Z,992.02
2016-03-03T11:48:27.862Z,991.99
2016-03-03T11:49:27.833Z,991.97
2016-03-03T11:50:27.773Z,991.95
2016-03-03T11:51:27.760Z,992
2016-03-03T11:52:27.732Z,991.93
2016-03-03T11:53:27.704Z,991.96
2016-03-03T11:54:27.674Z,991.92
2016-03-03T11:55:27.660Z,991.96
2016-03-03T11:56:27.623Z,991.94
2016-03-03T11:57:27.584Z,991.92
2016-03-03T11:58:27.579Z,991.94
2016-03-03T11:59:27.529Z,991.96
2016-03-03T12:00:27.510Z,991.99
2016-03-03T12:01:27.477Z,992
2016-03-03T12:02:27.445Z,992.03
2016-03-03T12:03:27.649Z,992.04
2016-03-03T12:04:27.398Z,992.03
2016-03-03T12:05:27.367Z,992.01
2016-03-03T12:06:27.353Z,992.04
2016-03-03T12:07:27.323Z,992.05
2016-03-03T12:08:27.310Z,992.08
2016-03-03T12:09:27.279Z,992.05
2016-03-03T12:10:27.249Z,992.06
2016-03-03T12:11:27.440Z,992.07
2016-03-03T12:12:27.207Z,992.05
2016-03-03T12:13:27.179Z,992.09
2016-03-03T12:14:27.165Z,992.06
2016-03-03T12:15:27.137Z,992.11
2016-03-03T12:16:27.123Z,992.06
2016-03-03T12:17:27.094Z,992.09
2016-03-03T12:18:27.066Z,992.04
2016-03-03T12:19:27.051Z,992.03
2016-03-03T12:20:27.023Z,992.04
2016-03-03T12:21:27.010Z,992.03
2016-03-03T12:22:26.981Z,992.05
2016-03-03T12:23:26.953Z,992.07
2016-03-03T12:24:26.939Z,992.11
2016-03-03T12:25:26.912Z,992.11
2016-03-03T12:26:26.898Z,992.13
2016-03-03T12:27:26.870Z,992.14
2016-03-03T12:28:26.841Z,992.16
2016-03-03T12:29:26.828Z,992.14
2016-03-03T12:30:26.816Z,992.19
2016-03-03T12:31:26.787Z,992.16